Lister — ZDHW6 — position and weather

sailwx.info

Track history (hours):
 
Tides and Currents Weather Stations Pressure Air Temp Water Temp Dewpoint Dewpoint Depression Visibility Wind Speed Wind Dir Waves Ship Positions

Lister

Last reported at 2015-Jul-04 23:31 UTC. Time now 2015-Jul-05 00:07 UTC.
Position N 56°25' E 010°56'.

Length 89 m; draft 5.8 m.

Type: Ship. MMSI: 236381000.

Date/timePositionNaut miles runAvg speedWind from/ knotsBaromVisibWave heightAir tempDewpointWater temp
2015-Jul-04 23:31N 56°25' E 010°56'0 0.0
2015-Jul-04 22:31N 56°25' E 010°56'0 0.0
2015-Jul-04 21:31N 56°25' E 010°56'0 0.0
2015-Jul-04 20:31N 56°25' E 010°56'0 0.0
2015-Jul-04 19:31N 56°25' E 010°56'0 0.0
2015-Jul-04 18:32N 56°25' E 010°56'3 3.4
2015-Jul-04 17:31N 56°22' E 010°60'9 9.1
2015-Jul-04 16:32N 56°14' E 011°02'9 9.5
2015-Jul-04 15:33N 56°04' E 011°05'11 9.7
2015-Jul-04 14:26N 55°54' E 010°57'9 9.8
2015-Jul-04 13:33N 55°47' E 010°49'21 9.7
2015-Jul-04 11:25N 55°27' E 010°57'9 9.5
2015-Jul-04 10:26N 55°18' E 011°03'8 8.8
2015-Jul-04 09:33N 55°10' E 011°04'1010.3
2015-Jul-04 08:33N 55°00' E 011°02'9 9.1
2015-Jul-04 07:33N 54°51' E 010°58'5 4.1
2015-Jul-04 06:19N 54°50' E 011°06'1 0.8
2015-Jul-04 05:33N 54°50' E 011°07'0 0.0
2015-Jul-04 03:33N 54°50' E 011°07'0 0.0
2015-Jul-04 01:33N 54°50' E 011°07'0 0.0
2015-Jul-03 04:15N 54°50' E 011°07'0 0.0
2015-Jul-03 03:27N 54°50' E 011°07'0 0.0
2015-Jul-03 02:30N 54°50' E 011°07'0 0.0
2015-Jul-03 01:30N 54°50' E 011°07'0 0.0
2015-Jul-03 00:33N 54°50' E 011°07'0 0.0
2015-Jul-02 23:33N 54°50' E 011°07'0 0.0
2015-Jul-02 22:33N 54°50' E 011°07'0 0.0
2015-Jul-02 20:27N 54°50' E 011°07'0 0.0
2015-Jul-02 19:21N 54°50' E 011°07'0 0.0
2015-Jul-02 17:33N 54°50' E 011°07'0 0.0
2015-Jul-02 10:24N 54°50' E 011°07'0 0.0
2015-Jul-02 09:15N 54°50' E 011°07'0 0.0
2015-Jul-02 05:18N 54°50' E 011°07'0 0.0
2015-Jul-02 02:18N 54°50' E 011°07'0 0.0
2015-Jul-02 01:33N 54°50' E 011°07'0 0.0
2015-Jul-01 23:24N 54°50' E 011°07'0 0.0
2015-Jul-01 22:30N 54°50' E 011°07'1 0.1
2015-Jul-01 08:15N 54°50' E 011°06'3 4.9
2015-Jul-01 07:32N 54°50' E 010°60'6 6.0
2015-Jul-01 06:32N 54°56' E 010°59'11 9.9
2015-Jul-01 05:24N 55°08' E 011°02'100 9.0
2015-Jun-30 18:20N 56°47' E 010°50'  
2015-Jun-26 12:17N 57°03' E 010°03'0 0.0
2015-Jun-26 11:29N 57°03' E 010°03'0 0.0
2015-Jun-26 10:33N 57°03' E 010°03'0 0.0
2015-Jun-26 08:29N 57°03' E 010°03'0 0.0
2015-Jun-26 07:05N 57°03' E 010°03'0 0.0
2015-Jun-26 06:30N 57°03' E 010°03'0 0.0
2015-Jun-26 05:29N 57°03' E 010°03'0 0.0
2015-Jun-26 04:32N 57°03' E 010°03'0 0.0
2015-Jun-26 03:23N 57°03' E 010°03'0 0.0
2015-Jun-26 02:33N 57°03' E 010°03'0 0.0
2015-Jun-26 01:23N 57°03' E 010°03'0 0.0
2015-Jun-26 00:29N 57°03' E 010°03'0 0.0
2015-Jun-25 23:33N 57°03' E 010°03'0 0.0
2015-Jun-25 22:30N 57°03' E 010°03'0 0.0
2015-Jun-25 21:30N 57°03' E 010°03'0 0.0
2015-Jun-25 20:26N 57°03' E 010°03'0 0.0
2015-Jun-25 19:21N 57°03' E 010°03'0 0.0
2015-Jun-25 18:21N 57°03' E 010°03'0 0.0
2015-Jun-25 17:30N 57°03' E 010°03'0 0.0
2015-Jun-25 16:29N 57°03' E 010°03'0 0.0
2015-Jun-25 15:23N 57°03' E 010°03'0 0.0
2015-Jun-25 14:33N 57°03' E 010°03'0 0.0
2015-Jun-25 13:27N 57°03' E 010°03'0 0.0
2015-Jun-25 12:20N 57°03' E 010°03'0 0.0
2015-Jun-25 11:32N 57°03' E 010°03'0 0.0
2015-Jun-25 10:30N 57°03' E 010°03'0 0.0
2015-Jun-25 09:29N 57°03' E 010°03'0 0.0
2015-Jun-25 08:30N 57°03' E 010°03'0 0.0
2015-Jun-25 07:30N 57°03' E 010°03'0 0.0
2015-Jun-25 04:24N 57°03' E 010°03'0 0.0
2015-Jun-25 03:29N 57°03' E 010°03'0 0.0
2015-Jun-25 02:29N 57°03' E 010°03'0 0.0
2015-Jun-25 01:24N 57°03' E 010°03'0 0.0
2015-Jun-25 00:30N 57°03' E 010°03'  
Track history (hours):
 
Tides and Currents Weather Stations Pressure Air Temp Water Temp Dewpoint Dewpoint Depression Visibility Wind Speed Wind Dir Waves Ship Positions

Lister

Last reported at 2015-Jul-04 23:31 UTC. Time now 2015-Jul-05 00:07 UTC.
Position N 56°25' E 010°56'.

Length 89 m; draft 5.8 m.

Type: Ship. MMSI: 236381000.

Date/timePositionNaut miles runAvg speedWind from/ knotsBaromVisibWave heightAir tempDewpointWater temp
2015-Jul-04 23:31N 56°25' E 010°56'0 0.0
2015-Jul-04 22:31N 56°25' E 010°56'0 0.0
2015-Jul-04 21:31N 56°25' E 010°56'0 0.0
2015-Jul-04 20:31N 56°25' E 010°56'0 0.0
2015-Jul-04 19:31N 56°25' E 010°56'0 0.0
2015-Jul-04 18:32N 56°25' E 010°56'3 3.4
2015-Jul-04 17:31N 56°22' E 010°60'9 9.1
2015-Jul-04 16:32N 56°14' E 011°02'9 9.5
2015-Jul-04 15:33N 56°04' E 011°05'11 9.7
2015-Jul-04 14:26N 55°54' E 010°57'9 9.8
2015-Jul-04 13:33N 55°47' E 010°49'21 9.7
2015-Jul-04 11:25N 55°27' E 010°57'9 9.5
2015-Jul-04 10:26N 55°18' E 011°03'8 8.8
2015-Jul-04 09:33N 55°10' E 011°04'1010.3
2015-Jul-04 08:33N 55°00' E 011°02'9 9.1
2015-Jul-04 07:33N 54°51' E 010°58'5 4.1
2015-Jul-04 06:19N 54°50' E 011°06'1 0.8
2015-Jul-04 05:33N 54°50' E 011°07'0 0.0
2015-Jul-04 03:33N 54°50' E 011°07'0 0.0
2015-Jul-04 01:33N 54°50' E 011°07'0 0.0
2015-Jul-03 04:15N 54°50' E 011°07'0 0.0
2015-Jul-03 03:27N 54°50' E 011°07'0 0.0
2015-Jul-03 02:30N 54°50' E 011°07'0 0.0
2015-Jul-03 01:30N 54°50' E 011°07'0 0.0
2015-Jul-03 00:33N 54°50' E 011°07'0 0.0
2015-Jul-02 23:33N 54°50' E 011°07'0 0.0
2015-Jul-02 22:33N 54°50' E 011°07'0 0.0
2015-Jul-02 20:27N 54°50' E 011°07'0 0.0
2015-Jul-02 19:21N 54°50' E 011°07'0 0.0
2015-Jul-02 17:33N 54°50' E 011°07'0 0.0
2015-Jul-02 10:24N 54°50' E 011°07'0 0.0
2015-Jul-02 09:15N 54°50' E 011°07'0 0.0
2015-Jul-02 05:18N 54°50' E 011°07'0 0.0
2015-Jul-02 02:18N 54°50' E 011°07'0 0.0
2015-Jul-02 01:33N 54°50' E 011°07'0 0.0
2015-Jul-01 23:24N 54°50' E 011°07'0 0.0
2015-Jul-01 22:30N 54°50' E 011°07'1 0.1
2015-Jul-01 08:15N 54°50' E 011°06'3 4.9
2015-Jul-01 07:32N 54°50' E 010°60'6 6.0
2015-Jul-01 06:32N 54°56' E 010°59'11 9.9
2015-Jul-01 05:24N 55°08' E 011°02'100 9.0
2015-Jun-30 18:20N 56°47' E 010°50'  
2015-Jun-26 12:17N 57°03' E 010°03'0 0.0
2015-Jun-26 11:29N 57°03' E 010°03'0 0.0
2015-Jun-26 10:33N 57°03' E 010°03'0 0.0
2015-Jun-26 08:29N 57°03' E 010°03'0 0.0
2015-Jun-26 07:05N 57°03' E 010°03'0 0.0
2015-Jun-26 06:30N 57°03' E 010°03'0 0.0
2015-Jun-26 05:29N 57°03' E 010°03'0 0.0
2015-Jun-26 04:32N 57°03' E 010°03'0 0.0
2015-Jun-26 03:23N 57°03' E 010°03'0 0.0
2015-Jun-26 02:33N 57°03' E 010°03'0 0.0
2015-Jun-26 01:23N 57°03' E 010°03'0 0.0
2015-Jun-26 00:29N 57°03' E 010°03'0 0.0
2015-Jun-25 23:33N 57°03' E 010°03'0 0.0
2015-Jun-25 22:30N 57°03' E 010°03'0 0.0
2015-Jun-25 21:30N 57°03' E 010°03'0 0.0
2015-Jun-25 20:26N 57°03' E 010°03'0 0.0
2015-Jun-25 19:21N 57°03' E 010°03'0 0.0
2015-Jun-25 18:21N 57°03' E 010°03'0 0.0
2015-Jun-25 17:30N 57°03' E 010°03'0 0.0
2015-Jun-25 16:29N 57°03' E 010°03'0 0.0
2015-Jun-25 15:23N 57°03' E 010°03'0 0.0
2015-Jun-25 14:33N 57°03' E 010°03'0 0.0
2015-Jun-25 13:27N 57°03' E 010°03'0 0.0
2015-Jun-25 12:20N 57°03' E 010°03'0 0.0
2015-Jun-25 11:32N 57°03' E 010°03'0 0.0
2015-Jun-25 10:30N 57°03' E 010°03'0 0.0
2015-Jun-25 09:29N 57°03' E 010°03'0 0.0
2015-Jun-25 08:30N 57°03' E 010°03'0 0.0
2015-Jun-25 07:30N 57°03' E 010°03'0 0.0
2015-Jun-25 04:24N 57°03' E 010°03'0 0.0
2015-Jun-25 03:29N 57°03' E 010°03'0 0.0
2015-Jun-25 02:29N 57°03' E 010°03'0 0.0
2015-Jun-25 01:24N 57°03' E 010°03'0 0.0
2015-Jun-25 00:30N 57°03' E 010°03'  

Dump ship's entire track history